sensor_id;sensor_type;location;lat;lon;timestamp;P1;durP1;ratioP1;P2;durP2;ratioP2
15938;SDS011;8068;51.322;9.450;2023-12-07T00:02:04;16.77;;;13.73;;
15938;SDS011;8068;51.322;9.450;2023-12-07T00:04:31;12.10;;;10.97;;
15938;SDS011;8068;51.322;9.450;2023-12-07T00:06:58;13.60;;;12.20;;
15938;SDS011;8068;51.322;9.450;2023-12-07T00:09:26;13.10;;;11.80;;
15938;SDS011;8068;51.322;9.450;2023-12-07T00:11:53;15.87;;;11.40;;
15938;SDS011;8068;51.322;9.450;2023-12-07T00:14:20;13.10;;;11.70;;
15938;SDS011;8068;51.322;9.450;2023-12-07T00:16:47;14.03;;;12.53;;
15938;SDS011;8068;51.322;9.450;2023-12-07T00:19:14;15.10;;;12.30;;
15938;SDS011;8068;51.322;9.450;2023-12-07T00:21:41;15.33;;;13.67;;
15938;SDS011;8068;51.322;9.450;2023-12-07T00:24:08;15.17;;;13.00;;
15938;SDS011;8068;51.322;9.450;2023-12-07T00:26:35;14.07;;;12.57;;
15938;SDS011;8068;51.322;9.450;2023-12-07T00:29:02;20.07;;;13.63;;
15938;SDS011;8068;51.322;9.450;2023-12-07T00:31:29;16.60;;;12.90;;
15938;SDS011;8068;51.322;9.450;2023-12-07T00:33:56;14.90;;;13.07;;
15938;SDS011;8068;51.322;9.450;2023-12-07T00:36:23;18.80;;;14.03;;
15938;SDS011;8068;51.322;9.450;2023-12-07T00:38:50;13.83;;;12.30;;
15938;SDS011;8068;51.322;9.450;2023-12-07T00:41:17;18.13;;;12.93;;
15938;SDS011;8068;51.322;9.450;2023-12-07T00:43:44;19.27;;;13.20;;
15938;SDS011;8068;51.322;9.450;2023-12-07T00:46:11;14.30;;;12.80;;
15938;SDS011;8068;51.322;9.450;2023-12-07T00:48:38;14.57;;;13.07;;
15938;SDS011;8068;51.322;9.450;2023-12-07T00:51:06;15.37;;;13.07;;
15938;SDS011;8068;51.322;9.450;2023-12-07T00:53:33;15.17;;;13.57;;
15938;SDS011;8068;51.322;9.450;2023-12-07T00:56:02;14.50;;;13.00;;
15938;SDS011;8068;51.322;9.450;2023-12-07T00:58:29;17.47;;;12.57;;
15938;SDS011;8068;51.322;9.450;2023-12-07T01:00:56;14.60;;;13.20;;
15938;SDS011;8068;51.322;9.450;2023-12-07T01:03:23;14.27;;;12.77;;
15938;SDS011;8068;51.322;9.450;2023-12-07T01:05:50;14.50;;;12.90;;
15938;SDS011;8068;51.322;9.450;2023-12-07T01:08:17;14.10;;;12.60;;
15938;SDS011;8068;51.322;9.450;2023-12-07T01:10:44;13.63;;;11.90;;
15938;SDS011;8068;51.322;9.450;2023-12-07T01:13:11;14.97;;;13.40;;
15938;SDS011;8068;51.322;9.450;2023-12-07T01:15:38;13.13;;;11.83;;
15938;SDS011;8068;51.322;9.450;2023-12-07T01:18:05;16.90;;;13.40;;
15938;SDS011;8068;51.322;9.450;2023-12-07T01:20:32;15.40;;;13.30;;
15938;SDS011;8068;51.322;9.450;2023-12-07T01:22:59;16.10;;;13.00;;
15938;SDS011;8068;51.322;9.450;2023-12-07T01:25:26;15.23;;;13.63;;
15938;SDS011;8068;51.322;9.450;2023-12-07T01:27:54;15.60;;;13.43;;
15938;SDS011;8068;51.322;9.450;2023-12-07T01:30:21;14.57;;;12.60;;
15938;SDS011;8068;51.322;9.450;2023-12-07T01:32:48;14.77;;;13.23;;
15938;SDS011;8068;51.322;9.450;2023-12-07T01:35:15;17.83;;;13.83;;
15938;SDS011;8068;51.322;9.450;2023-12-07T01:37:42;13.47;;;12.07;;
15938;SDS011;8068;51.322;9.450;2023-12-07T01:40:10;14.00;;;12.60;;
15938;SDS011;8068;51.322;9.450;2023-12-07T01:42:38;14.00;;;12.60;;
15938;SDS011;8068;51.322;9.450;2023-12-07T01:45:05;13.60;;;11.90;;
15938;SDS011;8068;51.322;9.450;2023-12-07T01:47:33;13.87;;;12.47;;
15938;SDS011;8068;51.322;9.450;2023-12-07T01:50:02;12.63;;;11.33;;
15938;SDS011;8068;51.322;9.450;2023-12-07T01:52:33;14.17;;;12.43;;
15938;SDS011;8068;51.322;9.450;2023-12-07T01:55:02;17.37;;;12.60;;
15938;SDS011;8068;51.322;9.450;2023-12-07T01:57:30;13.97;;;12.30;;
15938;SDS011;8068;51.322;9.450;2023-12-07T01:59:57;13.70;;;12.40;;
15938;SDS011;8068;51.322;9.450;2023-12-07T02:02:24;16.00;;;13.37;;
15938;SDS011;8068;51.322;9.450;2023-12-07T02:04:51;14.97;;;13.30;;
15938;SDS011;8068;51.322;9.450;2023-12-07T02:07:19;15.77;;;13.63;;
15938;SDS011;8068;51.322;9.450;2023-12-07T02:09:46;16.17;;;13.53;;
15938;SDS011;8068;51.322;9.450;2023-12-07T02:12:13;15.50;;;12.50;;
15938;SDS011;8068;51.322;9.450;2023-12-07T02:14:40;15.87;;;13.70;;
15938;SDS011;8068;51.322;9.450;2023-12-07T02:17:14;25.00;;;15.83;;
15938;SDS011;8068;51.322;9.450;2023-12-07T02:20:05;15.70;;;14.00;;
15938;SDS011;8068;51.322;9.450;2023-12-07T02:22:43;14.67;;;13.17;;
15938;SDS011;8068;51.322;9.450;2023-12-07T02:25:14;16.53;;;12.40;;
15938;SDS011;8068;51.322;9.450;2023-12-07T02:27:45;14.67;;;12.80;;
15938;SDS011;8068;51.322;9.450;2023-12-07T02:30:15;14.00;;;12.60;;
15938;SDS011;8068;51.322;9.450;2023-12-07T02:32:43;13.20;;;12.00;;
15938;SDS011;8068;51.322;9.450;2023-12-07T02:35:12;13.57;;;12.27;;
15938;SDS011;8068;51.322;9.450;2023-12-07T02:37:46;13.40;;;12.13;;
15938;SDS011;8068;51.322;9.450;2023-12-07T02:40:20;13.93;;;12.40;;
15938;SDS011;8068;51.322;9.450;2023-12-07T02:42:49;12.70;;;11.40;;
15938;SDS011;8068;51.322;9.450;2023-12-07T02:45:16;12.20;;;11.20;;
15938;SDS011;8068;51.322;9.450;2023-12-07T02:47:43;13.43;;;12.07;;
15938;SDS011;8068;51.322;9.450;2023-12-07T02:50:12;13.10;;;11.80;;
15938;SDS011;8068;51.322;9.450;2023-12-07T02:52:39;17.13;;;11.87;;
15938;SDS011;8068;51.322;9.450;2023-12-07T02:55:07;15.97;;;12.53;;
15938;SDS011;8068;51.322;9.450;2023-12-07T02:57:35;16.53;;;13.60;;
15938;SDS011;8068;51.322;9.450;2023-12-07T03:00:03;13.47;;;12.17;;
15938;SDS011;8068;51.322;9.450;2023-12-07T03:02:37;14.03;;;12.63;;
15938;SDS011;8068;51.322;9.450;2023-12-07T03:05:04;12.30;;;11.30;;
15938;SDS011;8068;51.322;9.450;2023-12-07T03:07:32;13.80;;;12.57;;
15938;SDS011;8068;51.322;9.450;2023-12-07T03:10:00;14.67;;;13.17;;
15938;SDS011;8068;51.322;9.450;2023-12-07T03:12:27;14.00;;;12.60;;
15938;SDS011;8068;51.322;9.450;2023-12-07T03:14:54;15.20;;;12.83;;
15938;SDS011;8068;51.322;9.450;2023-12-07T03:17:21;16.57;;;12.87;;
15938;SDS011;8068;51.322;9.450;2023-12-07T03:19:48;13.37;;;11.97;;
15938;SDS011;8068;51.322;9.450;2023-12-07T03:22:15;13.13;;;11.83;;
15938;SDS011;8068;51.322;9.450;2023-12-07T03:24:46;13.90;;;12.03;;
15938;SDS011;8068;51.322;9.450;2023-12-07T03:27:18;16.00;;;13.00;;
15938;SDS011;8068;51.322;9.450;2023-12-07T03:29:46;15.50;;;12.40;;
15938;SDS011;8068;51.322;9.450;2023-12-07T03:32:13;14.43;;;12.93;;
15938;SDS011;8068;51.322;9.450;2023-12-07T03:34:40;20.50;;;12.77;;
15938;SDS011;8068;51.322;9.450;2023-12-07T03:37:07;15.40;;;13.80;;
15938;SDS011;8068;51.322;9.450;2023-12-07T03:39:34;15.30;;;13.23;;
15938;SDS011;8068;51.322;9.450;2023-12-07T03:42:01;18.23;;;14.90;;
15938;SDS011;8068;51.322;9.450;2023-12-07T03:44:28;18.73;;;13.80;;
15938;SDS011;8068;51.322;9.450;2023-12-07T03:46:55;15.47;;;13.87;;
15938;SDS011;8068;51.322;9.450;2023-12-07T03:49:22;17.30;;;14.37;;
15938;SDS011;8068;51.322;9.450;2023-12-07T03:51:49;18.07;;;14.33;;
15938;SDS011;8068;51.322;9.450;2023-12-07T03:54:16;18.37;;;14.37;;
15938;SDS011;8068;51.322;9.450;2023-12-07T03:56:43;19.50;;;15.10;;
15938;SDS011;8068;51.322;9.450;2023-12-07T03:59:10;18.20;;;13.73;;
15938;SDS011;8068;51.322;9.450;2023-12-07T04:01:37;17.23;;;14.87;;
15938;SDS011;8068;51.322;9.450;2023-12-07T04:04:04;17.93;;;14.63;;
15938;SDS011;8068;51.322;9.450;2023-12-07T04:06:32;17.20;;;14.97;;
15938;SDS011;8068;51.322;9.450;2023-12-07T04:08:59;20.53;;;14.83;;
15938;SDS011;8068;51.322;9.450;2023-12-07T04:11:26;17.67;;;15.87;;
15938;SDS011;8068;51.322;9.450;2023-12-07T04:13:53;21.00;;;15.93;;
15938;SDS011;8068;51.322;9.450;2023-12-07T04:16:20;17.13;;;15.07;;
15938;SDS011;8068;51.322;9.450;2023-12-07T04:18:47;18.80;;;15.93;;
15938;SDS011;8068;51.322;9.450;2023-12-07T04:21:14;18.13;;;15.30;;
15938;SDS011;8068;51.322;9.450;2023-12-07T04:23:41;19.30;;;16.07;;
15938;SDS011;8068;51.322;9.450;2023-12-07T04:26:08;19.73;;;15.80;;
15938;SDS011;8068;51.322;9.450;2023-12-07T04:28:36;18.07;;;15.67;;
15938;SDS011;8068;51.322;9.450;2023-12-07T04:31:03;20.03;;;16.60;;
15938;SDS011;8068;51.322;9.450;2023-12-07T04:33:30;22.23;;;17.00;;
15938;SDS011;8068;51.322;9.450;2023-12-07T04:35:58;19.93;;;16.87;;
15938;SDS011;8068;51.322;9.450;2023-12-07T04:38:24;19.20;;;16.20;;
15938;SDS011;8068;51.322;9.450;2023-12-07T04:40:51;24.87;;;17.20;;
15938;SDS011;8068;51.322;9.450;2023-12-07T04:43:18;21.10;;;16.03;;
15938;SDS011;8068;51.322;9.450;2023-12-07T04:45:45;21.43;;;16.20;;
15938;SDS011;8068;51.322;9.450;2023-12-07T04:48:12;27.60;;;17.00;;
15938;SDS011;8068;51.322;9.450;2023-12-07T04:50:40;24.27;;;16.70;;
15938;SDS011;8068;51.322;9.450;2023-12-07T04:53:06;20.90;;;17.00;;
15938;SDS011;8068;51.322;9.450;2023-12-07T04:55:33;20.30;;;15.73;;
15938;SDS011;8068;51.322;9.450;2023-12-07T04:58:01;26.00;;;17.47;;
15938;SDS011;8068;51.322;9.450;2023-12-07T05:00:28;20.50;;;16.80;;
15938;SDS011;8068;51.322;9.450;2023-12-07T05:02:55;18.93;;;16.90;;
15938;SDS011;8068;51.322;9.450;2023-12-07T05:05:21;21.83;;;17.17;;
15938;SDS011;8068;51.322;9.450;2023-12-07T05:07:49;24.37;;;17.70;;
15938;SDS011;8068;51.322;9.450;2023-12-07T05:10:15;19.10;;;15.90;;
15938;SDS011;8068;51.322;9.450;2023-12-07T05:12:42;19.63;;;16.13;;
15938;SDS011;8068;51.322;9.450;2023-12-07T05:15:09;20.90;;;16.00;;
15938;SDS011;8068;51.322;9.450;2023-12-07T05:17:36;23.17;;;17.00;;
15938;SDS011;8068;51.322;9.450;2023-12-07T05:20:03;18.93;;;15.63;;
15938;SDS011;8068;51.322;9.450;2023-12-07T05:22:34;17.93;;;15.87;;
15938;SDS011;8068;51.322;9.450;2023-12-07T05:25:01;22.27;;;16.80;;
15938;SDS011;8068;51.322;9.450;2023-12-07T05:27:28;30.20;;;20.23;;
15938;SDS011;8068;51.322;9.450;2023-12-07T05:29:55;27.30;;;18.50;;
15938;SDS011;8068;51.322;9.450;2023-12-07T05:32:22;21.63;;;16.77;;
15938;SDS011;8068;51.322;9.450;2023-12-07T05:34:49;23.90;;;18.17;;
15938;SDS011;8068;51.322;9.450;2023-12-07T05:37:17;20.07;;;15.97;;
15938;SDS011;8068;51.322;9.450;2023-12-07T05:39:44;20.77;;;16.13;;
15938;SDS011;8068;51.322;9.450;2023-12-07T05:42:11;20.40;;;16.27;;
15938;SDS011;8068;51.322;9.450;2023-12-07T05:44:38;21.13;;;16.17;;
15938;SDS011;8068;51.322;9.450;2023-12-07T05:47:05;20.30;;;16.80;;
15938;SDS011;8068;51.322;9.450;2023-12-07T05:49:32;25.30;;;16.53;;
15938;SDS011;8068;51.322;9.450;2023-12-07T05:51:59;21.20;;;16.70;;
15938;SDS011;8068;51.322;9.450;2023-12-07T05:54:26;24.37;;;18.03;;
15938;SDS011;8068;51.322;9.450;2023-12-07T05:56:53;22.27;;;17.33;;
15938;SDS011;8068;51.322;9.450;2023-12-07T05:59:20;23.57;;;18.43;;
15938;SDS011;8068;51.322;9.450;2023-12-07T06:01:47;22.03;;;17.40;;
15938;SDS011;8068;51.322;9.450;2023-12-07T06:04:14;27.07;;;17.80;;
15938;SDS011;8068;51.322;9.450;2023-12-07T06:06:42;26.13;;;17.70;;
15938;SDS011;8068;51.322;9.450;2023-12-07T06:09:09;28.30;;;19.00;;
15938;SDS011;8068;51.322;9.450;2023-12-07T06:11:37;27.93;;;21.30;;
15938;SDS011;8068;51.322;9.450;2023-12-07T06:14:04;28.00;;;19.43;;
15938;SDS011;8068;51.322;9.450;2023-12-07T06:16:33;26.73;;;19.53;;
15938;SDS011;8068;51.322;9.450;2023-12-07T06:19:00;23.37;;;17.80;;
15938;SDS011;8068;51.322;9.450;2023-12-07T06:21:27;21.30;;;17.30;;
15938;SDS011;8068;51.322;9.450;2023-12-07T06:23:56;25.40;;;17.60;;
15938;SDS011;8068;51.322;9.450;2023-12-07T06:26:24;27.50;;;20.53;;
15938;SDS011;8068;51.322;9.450;2023-12-07T06:28:51;23.80;;;18.20;;
15938;SDS011;8068;51.322;9.450;2023-12-07T06:31:18;23.30;;;17.80;;
15938;SDS011;8068;51.322;9.450;2023-12-07T06:33:48;22.50;;;17.87;;
15938;SDS011;8068;51.322;9.450;2023-12-07T06:36:19;23.03;;;18.40;;
15938;SDS011;8068;51.322;9.450;2023-12-07T06:38:47;21.37;;;16.93;;
15938;SDS011;8068;51.322;9.450;2023-12-07T06:41:14;21.20;;;16.27;;
15938;SDS011;8068;51.322;9.450;2023-12-07T06:43:42;24.30;;;17.10;;
15938;SDS011;8068;51.322;9.450;2023-12-07T06:46:11;22.60;;;16.83;;
15938;SDS011;8068;51.322;9.450;2023-12-07T06:48:40;21.97;;;17.10;;
15938;SDS011;8068;51.322;9.450;2023-12-07T06:51:07;24.70;;;16.17;;
15938;SDS011;8068;51.322;9.450;2023-12-07T06:53:34;24.10;;;16.60;;
15938;SDS011;8068;51.322;9.450;2023-12-07T06:56:01;21.70;;;15.83;;
15938;SDS011;8068;51.322;9.450;2023-12-07T06:58:29;25.63;;;17.10;;
15938;SDS011;8068;51.322;9.450;2023-12-07T07:00:56;19.70;;;16.10;;
15938;SDS011;8068;51.322;9.450;2023-12-07T07:03:24;22.07;;;15.37;;
15938;SDS011;8068;51.322;9.450;2023-12-07T07:05:51;20.47;;;16.40;;
15938;SDS011;8068;51.322;9.450;2023-12-07T07:08:18;19.83;;;15.77;;
15938;SDS011;8068;51.322;9.450;2023-12-07T07:10:45;20.13;;;16.10;;
15938;SDS011;8068;51.322;9.450;2023-12-07T07:13:13;24.60;;;18.47;;
15938;SDS011;8068;51.322;9.450;2023-12-07T07:15:43;21.60;;;16.63;;
15938;SDS011;8068;51.322;9.450;2023-12-07T07:18:11;19.43;;;16.47;;
15938;SDS011;8068;51.322;9.450;2023-12-07T07:20:38;29.73;;;18.37;;
15938;SDS011;8068;51.322;9.450;2023-12-07T07:23:05;21.60;;;16.97;;
15938;SDS011;8068;51.322;9.450;2023-12-07T07:25:32;21.60;;;17.80;;
15938;SDS011;8068;51.322;9.450;2023-12-07T07:27:59;21.33;;;16.47;;
15938;SDS011;8068;51.322;9.450;2023-12-07T07:30:26;22.23;;;17.80;;
15938;SDS011;8068;51.322;9.450;2023-12-07T07:32:53;19.63;;;16.30;;
15938;SDS011;8068;51.322;9.450;2023-12-07T07:35:20;22.27;;;15.90;;
15938;SDS011;8068;51.322;9.450;2023-12-07T07:37:47;24.53;;;17.23;;
15938;SDS011;8068;51.322;9.450;2023-12-07T07:40:14;19.90;;;15.87;;
15938;SDS011;8068;51.322;9.450;2023-12-07T07:42:42;23.50;;;17.20;;
15938;SDS011;8068;51.322;9.450;2023-12-07T07:45:09;20.30;;;16.83;;
15938;SDS011;8068;51.322;9.450;2023-12-07T07:47:36;21.20;;;16.93;;
15938;SDS011;8068;51.322;9.450;2023-12-07T07:50:04;26.37;;;16.30;;
15938;SDS011;8068;51.322;9.450;2023-12-07T07:52:32;19.00;;;15.20;;
15938;SDS011;8068;51.322;9.450;2023-12-07T07:55:00;23.53;;;17.30;;
15938;SDS011;8068;51.322;9.450;2023-12-07T07:57:29;20.27;;;15.33;;
15938;SDS011;8068;51.322;9.450;2023-12-07T07:59:57;16.43;;;13.97;;
15938;SDS011;8068;51.322;9.450;2023-12-07T08:02:24;20.30;;;15.93;;
15938;SDS011;8068;51.322;9.450;2023-12-07T08:04:51;19.00;;;14.30;;
15938;SDS011;8068;51.322;9.450;2023-12-07T08:07:18;16.37;;;14.37;;
15938;SDS011;8068;51.322;9.450;2023-12-07T08:09:45;16.10;;;13.70;;
15938;SDS011;8068;51.322;9.450;2023-12-07T08:12:12;19.20;;;14.03;;
15938;SDS011;8068;51.322;9.450;2023-12-07T08:14:39;16.33;;;13.03;;
15938;SDS011;8068;51.322;9.450;2023-12-07T08:17:06;15.03;;;12.33;;
15938;SDS011;8068;51.322;9.450;2023-12-07T08:19:33;15.50;;;12.57;;
15938;SDS011;8068;51.322;9.450;2023-12-07T08:22:00;21.17;;;14.30;;
15938;SDS011;8068;51.322;9.450;2023-12-07T08:24:27;15.30;;;13.20;;
15938;SDS011;8068;51.322;9.450;2023-12-07T08:26:54;16.70;;;13.07;;
15938;SDS011;8068;51.322;9.450;2023-12-07T08:29:21;15.43;;;13.50;;
15938;SDS011;8068;51.322;9.450;2023-12-07T08:31:48;21.33;;;14.50;;
15938;SDS011;8068;51.322;9.450;2023-12-07T08:34:15;20.73;;;14.53;;
15938;SDS011;8068;51.322;9.450;2023-12-07T08:36:42;18.60;;;14.60;;
15938;SDS011;8068;51.322;9.450;2023-12-07T08:39:09;18.90;;;14.67;;
15938;SDS011;8068;51.322;9.450;2023-12-07T08:41:36;15.23;;;13.60;;
15938;SDS011;8068;51.322;9.450;2023-12-07T08:44:04;19.07;;;15.20;;
15938;SDS011;8068;51.322;9.450;2023-12-07T08:46:32;15.17;;;13.50;;
15938;SDS011;8068;51.322;9.450;2023-12-07T08:49:01;16.20;;;13.50;;
15938;SDS011;8068;51.322;9.450;2023-12-07T08:51:28;18.30;;;13.83;;
15938;SDS011;8068;51.322;9.450;2023-12-07T08:53:55;18.73;;;14.17;;
15938;SDS011;8068;51.322;9.450;2023-12-07T08:56:23;17.67;;;13.13;;
15938;SDS011;8068;51.322;9.450;2023-12-07T08:58:50;16.90;;;11.70;;
15938;SDS011;8068;51.322;9.450;2023-12-07T09:01:17;18.27;;;13.30;;
15938;SDS011;8068;51.322;9.450;2023-12-07T09:03:58;16.90;;;14.43;;
15938;SDS011;8068;51.322;9.450;2023-12-07T09:06:25;15.50;;;13.23;;
15938;SDS011;8068;51.322;9.450;2023-12-07T09:08:52;15.43;;;12.43;;
15938;SDS011;8068;51.322;9.450;2023-12-07T09:11:19;19.20;;;13.57;;
15938;SDS011;8068;51.322;9.450;2023-12-07T09:13:46;16.80;;;13.07;;
15938;SDS011;8068;51.322;9.450;2023-12-07T09:16:13;16.97;;;13.37;;
15938;SDS011;8068;51.322;9.450;2023-12-07T09:18:41;14.50;;;12.00;;
15938;SDS011;8068;51.322;9.450;2023-12-07T09:21:09;12.10;;;11.00;;
15938;SDS011;8068;51.322;9.450;2023-12-07T09:23:36;13.00;;;11.60;;
15938;SDS011;8068;51.322;9.450;2023-12-07T09:26:04;12.63;;;11.30;;
15938;SDS011;8068;51.322;9.450;2023-12-07T09:28:31;14.67;;;12.17;;
15938;SDS011;8068;51.322;9.450;2023-12-07T09:31:00;14.67;;;11.90;;
15938;SDS011;8068;51.322;9.450;2023-12-07T09:33:27;14.40;;;10.90;;
15938;SDS011;8068;51.322;9.450;2023-12-07T09:35:54;13.13;;;11.80;;
15938;SDS011;8068;51.322;9.450;2023-12-07T09:38:21;13.63;;;11.50;;
15938;SDS011;8068;51.322;9.450;2023-12-07T09:40:52;14.87;;;12.77;;
15938;SDS011;8068;51.322;9.450;2023-12-07T09:43:19;14.97;;;11.97;;
15938;SDS011;8068;51.322;9.450;2023-12-07T09:45:46;12.90;;;11.60;;
15938;SDS011;8068;51.322;9.450;2023-12-07T09:48:14;17.13;;;11.20;;
15938;SDS011;8068;51.322;9.450;2023-12-07T09:50:42;13.90;;;11.80;;
15938;SDS011;8068;51.322;9.450;2023-12-07T09:53:09;15.23;;;13.10;;
15938;SDS011;8068;51.322;9.450;2023-12-07T09:55:36;14.13;;;12.40;;
15938;SDS011;8068;51.322;9.450;2023-12-07T09:58:05;13.03;;;11.27;;
15938;SDS011;8068;51.322;9.450;2023-12-07T10:00:35;17.73;;;13.20;;
15938;SDS011;8068;51.322;9.450;2023-12-07T10:03:05;17.40;;;10.73;;
15938;SDS011;8068;51.322;9.450;2023-12-07T10:05:56;18.50;;;12.33;;
15938;SDS011;8068;51.322;9.450;2023-12-07T10:08:25;14.90;;;10.30;;
15938;SDS011;8068;51.322;9.450;2023-12-07T10:11:03;13.20;;;11.87;;
15938;SDS011;8068;51.322;9.450;2023-12-07T10:13:32;14.20;;;10.40;;
15938;SDS011;8068;51.322;9.450;2023-12-07T10:16:07;13.93;;;12.30;;
15938;SDS011;8068;51.322;9.450;2023-12-07T10:18:38;15.80;;;12.53;;
15938;SDS011;8068;51.322;9.450;2023-12-07T10:21:10;14.13;;;11.97;;
15938;SDS011;8068;51.322;9.450;2023-12-07T10:23:37;15.70;;;11.33;;
15938;SDS011;8068;51.322;9.450;2023-12-07T10:26:05;16.80;;;13.00;;
15938;SDS011;8068;51.322;9.450;2023-12-07T10:28:36;18.80;;;11.47;;
15938;SDS011;8068;51.322;9.450;2023-12-07T10:31:04;11.60;;;8.97;;
15938;SDS011;8068;51.322;9.450;2023-12-07T10:33:35;16.23;;;11.90;;
15938;SDS011;8068;51.322;9.450;2023-12-07T10:36:02;12.77;;;11.33;;
15938;SDS011;8068;51.322;9.450;2023-12-07T10:38:30;19.07;;;11.63;;
15938;SDS011;8068;51.322;9.450;2023-12-07T10:41:05;18.17;;;12.07;;
15938;SDS011;8068;51.322;9.450;2023-12-07T10:43:42;15.83;;;11.60;;
15938;SDS011;8068;51.322;9.450;2023-12-07T10:46:10;11.40;;;10.23;;
15938;SDS011;8068;51.322;9.450;2023-12-07T10:48:39;11.20;;;10.10;;
15938;SDS011;8068;51.322;9.450;2023-12-07T10:51:08;10.70;;;9.60;;
15938;SDS011;8068;51.322;9.450;2023-12-07T10:53:44;10.43;;;9.30;;
15938;SDS011;8068;51.322;9.450;2023-12-07T10:56:12;11.07;;;9.97;;
15938;SDS011;8068;51.322;9.450;2023-12-07T10:58:42;13.00;;;10.87;;
15938;SDS011;8068;51.322;9.450;2023-12-07T11:01:11;14.77;;;10.63;;
15938;SDS011;8068;51.322;9.450;2023-12-07T11:03:39;13.10;;;10.40;;
15938;SDS011;8068;51.322;9.450;2023-12-07T11:06:07;12.73;;;10.70;;
15938;SDS011;8068;51.322;9.450;2023-12-07T11:08:39;10.63;;;9.20;;
15938;SDS011;8068;51.322;9.450;2023-12-07T11:13:58;11.33;;;10.23;;
15938;SDS011;8068;51.322;9.450;2023-12-07T11:16:33;12.27;;;10.30;;
15938;SDS011;8068;51.322;9.450;2023-12-07T11:19:02;12.30;;;10.57;;
15938;SDS011;8068;51.322;9.450;2023-12-07T11:21:33;11.57;;;10.50;;
15938;SDS011;8068;51.322;9.450;2023-12-07T11:24:00;13.23;;;10.80;;
15938;SDS011;8068;51.322;9.450;2023-12-07T11:26:30;11.63;;;10.40;;
15938;SDS011;8068;51.322;9.450;2023-12-07T11:28:58;11.43;;;10.23;;
15938;SDS011;8068;51.322;9.450;2023-12-07T11:31:26;12.70;;;10.50;;
15938;SDS011;8068;51.322;9.450;2023-12-07T11:33:54;15.03;;;12.30;;
15938;SDS011;8068;51.322;9.450;2023-12-07T11:36:21;13.10;;;11.13;;
15938;SDS011;8068;51.322;9.450;2023-12-07T11:41:44;17.77;;;14.20;;
15938;SDS011;8068;51.322;9.450;2023-12-07T11:44:11;14.93;;;11.70;;
15938;SDS011;8068;51.322;9.450;2023-12-07T11:46:38;14.43;;;10.80;;
15938;SDS011;8068;51.322;9.450;2023-12-07T11:49:06;12.07;;;10.60;;
15938;SDS011;8068;51.322;9.450;2023-12-07T11:51:53;13.67;;;9.93;;
15938;SDS011;8068;51.322;9.450;2023-12-07T11:54:22;12.90;;;11.37;;
15938;SDS011;8068;51.322;9.450;2023-12-07T11:56:55;12.47;;;9.90;;
15938;SDS011;8068;51.322;9.450;2023-12-07T11:59:23;11.40;;;10.23;;
15938;SDS011;8068;51.322;9.450;2023-12-07T12:02:00;13.67;;;11.13;;
15938;SDS011;8068;51.322;9.450;2023-12-07T12:04:29;12.77;;;10.60;;
15938;SDS011;8068;51.322;9.450;2023-12-07T12:06:57;12.83;;;11.17;;
15938;SDS011;8068;51.322;9.450;2023-12-07T12:09:24;15.20;;;12.37;;
15938;SDS011;8068;51.322;9.450;2023-12-07T12:11:58;13.60;;;11.67;;
15938;SDS011;8068;51.322;9.450;2023-12-07T12:14:27;15.03;;;12.60;;
15938;SDS011;8068;51.322;9.450;2023-12-07T12:16:55;13.40;;;11.40;;
15938;SDS011;8068;51.322;9.450;2023-12-07T12:19:22;15.80;;;13.00;;
15938;SDS011;8068;51.322;9.450;2023-12-07T12:22:00;16.40;;;12.53;;
15938;SDS011;8068;51.322;9.450;2023-12-07T12:24:37;14.97;;;12.87;;
15938;SDS011;8068;51.322;9.450;2023-12-07T12:27:04;19.27;;;14.10;;
15938;SDS011;8068;51.322;9.450;2023-12-07T12:29:32;17.63;;;14.17;;
15938;SDS011;8068;51.322;9.450;2023-12-07T12:32:01;22.13;;;14.37;;
15938;SDS011;8068;51.322;9.450;2023-12-07T12:34:32;14.67;;;13.00;;
15938;SDS011;8068;51.322;9.450;2023-12-07T12:37:00;15.50;;;12.70;;
15938;SDS011;8068;51.322;9.450;2023-12-07T12:39:30;12.50;;;10.30;;
15938;SDS011;8068;51.322;9.450;2023-12-07T12:42:00;15.07;;;11.73;;
15938;SDS011;8068;51.322;9.450;2023-12-07T12:44:30;14.70;;;12.47;;
15938;SDS011;8068;51.322;9.450;2023-12-07T12:47:07;17.30;;;12.47;;
15938;SDS011;8068;51.322;9.450;2023-12-07T12:49:39;14.10;;;12.60;;
15938;SDS011;8068;51.322;9.450;2023-12-07T12:52:10;15.10;;;12.20;;
15938;SDS011;8068;51.322;9.450;2023-12-07T12:54:38;25.50;;;12.10;;
15938;SDS011;8068;51.322;9.450;2023-12-07T12:57:08;18.10;;;14.00;;
15938;SDS011;8068;51.322;9.450;2023-12-07T12:59:36;13.43;;;10.80;;
15938;SDS011;8068;51.322;9.450;2023-12-07T13:02:03;14.00;;;12.23;;
15938;SDS011;8068;51.322;9.450;2023-12-07T13:04:35;13.33;;;11.70;;
15938;SDS011;8068;51.322;9.450;2023-12-07T13:07:08;15.63;;;12.30;;
15938;SDS011;8068;51.322;9.450;2023-12-07T13:09:36;12.97;;;10.93;;
15938;SDS011;8068;51.322;9.450;2023-12-07T13:12:03;16.30;;;11.63;;
15938;SDS011;8068;51.322;9.450;2023-12-07T13:14:32;14.13;;;11.70;;
15938;SDS011;8068;51.322;9.450;2023-12-07T13:17:05;11.80;;;10.60;;
15938;SDS011;8068;51.322;9.450;2023-12-07T13:19:34;11.63;;;10.20;;
15938;SDS011;8068;51.322;9.450;2023-12-07T13:22:02;12.00;;;10.80;;
15938;SDS011;8068;51.322;9.450;2023-12-07T13:24:32;12.10;;;10.20;;
15938;SDS011;8068;51.322;9.450;2023-12-07T13:26:59;11.27;;;10.17;;
15938;SDS011;8068;51.322;9.450;2023-12-07T13:29:28;11.97;;;10.87;;
15938;SDS011;8068;51.322;9.450;2023-12-07T13:32:03;10.97;;;9.87;;
15938;SDS011;8068;51.322;9.450;2023-12-07T13:34:31;11.13;;;9.93;;
15938;SDS011;8068;51.322;9.450;2023-12-07T13:36:59;12.33;;;9.37;;
15938;SDS011;8068;51.322;9.450;2023-12-07T13:39:26;10.23;;;9.43;;
15938;SDS011;8068;51.322;9.450;2023-12-07T13:41:58;8.17;;;7.47;;
15938;SDS011;8068;51.322;9.450;2023-12-07T13:44:29;9.77;;;8.80;;
15938;SDS011;8068;51.322;9.450;2023-12-07T13:46:58;9.53;;;8.60;;
15938;SDS011;8068;51.322;9.450;2023-12-07T13:49:25;12.20;;;9.10;;
15938;SDS011;8068;51.322;9.450;2023-12-07T13:52:00;9.80;;;8.57;;
15938;SDS011;8068;51.322;9.450;2023-12-07T13:54:38;10.17;;;9.17;;
15938;SDS011;8068;51.322;9.450;2023-12-07T13:57:22;10.23;;;9.30;;
15938;SDS011;8068;51.322;9.450;2023-12-07T13:59:52;16.03;;;9.40;;
15938;SDS011;8068;51.322;9.450;2023-12-07T14:02:20;16.47;;;9.57;;
15938;SDS011;8068;51.322;9.450;2023-12-07T14:04:47;10.70;;;9.60;;
15938;SDS011;8068;51.322;9.450;2023-12-07T14:07:18;10.33;;;9.33;;
15938;SDS011;8068;51.322;9.450;2023-12-07T14:09:48;11.60;;;10.40;;
15938;SDS011;8068;51.322;9.450;2023-12-07T14:12:25;12.10;;;10.80;;
15938;SDS011;8068;51.322;9.450;2023-12-07T14:14:55;11.80;;;10.70;;
15938;SDS011;8068;51.322;9.450;2023-12-07T14:17:22;18.00;;;11.03;;
15938;SDS011;8068;51.322;9.450;2023-12-07T14:20:04;11.03;;;9.93;;
15938;SDS011;8068;51.322;9.450;2023-12-07T14:22:51;11.27;;;10.20;;
15938;SDS011;8068;51.322;9.450;2023-12-07T14:25:18;11.70;;;10.20;;
15938;SDS011;8068;51.322;9.450;2023-12-07T14:27:45;19.13;;;10.90;;
15938;SDS011;8068;51.322;9.450;2023-12-07T14:30:12;10.23;;;9.23;;
15938;SDS011;8068;51.322;9.450;2023-12-07T14:32:39;13.50;;;11.30;;
15938;SDS011;8068;51.322;9.450;2023-12-07T14:35:10;11.77;;;10.67;;
15938;SDS011;8068;51.322;9.450;2023-12-07T14:37:38;12.70;;;11.40;;
15938;SDS011;8068;51.322;9.450;2023-12-07T14:40:05;17.87;;;11.93;;
15938;SDS011;8068;51.322;9.450;2023-12-07T14:42:33;13.67;;;12.00;;
15938;SDS011;8068;51.322;9.450;2023-12-07T14:45:00;14.40;;;11.90;;
15938;SDS011;8068;51.322;9.450;2023-12-07T14:47:27;14.67;;;12.33;;
15938;SDS011;8068;51.322;9.450;2023-12-07T14:49:54;14.10;;;12.20;;